Time;durP1;ratioP1;P1;durP2;ratioP2;P2;SDS_P1;SDS_P2;PMS_P1;PMS_P2;Temp;Humidity;BMP_temperature;BMP_pressure;BME280_temperature;BME280_humidity;BME280_pressure;Samples;Min_cycle;Max_cycle;Signal;HPM_P1;HPM_P2
2022/12/27 00:01:11;;;;;;;13.05;3.70;;;;;;;;;;5067962;28;20062;-76
2022/12/27 00:03:37;;;;;;;11.25;3.58;;;;;;;;;;5063366;28;20040;-76
2022/12/27 00:06:11;;;;;;;10.93;3.25;;;;;;;;;;5066830;28;20437;-76
2022/12/27 00:08:37;;;;;;;9.23;2.92;;;;;;;;;;5063866;28;20429;-77
2022/12/27 00:11:08;;;;;;;9.43;2.95;;;;;;;;;;5062468;28;20059;-76
2022/12/27 00:13:34;;;;;;;16.27;3.90;;;;;;;;;;5066904;28;20049;-76
2022/12/27 00:16:08;;;;;;;17.17;3.67;;;;;;;;;;5065494;28;20496;-77
2022/12/27 00:18:34;;;;;;;12.35;3.10;;;;;;;;;;5060906;28;20487;-76
2022/12/27 00:21:01;;;;;;;11.98;3.97;;;;;;;;;;5065338;28;20044;-76
2022/12/27 00:23:27;;;;;;;9.35;2.60;;;;;;;;;;5063309;28;20048;-76
2022/12/27 00:26:00;;;;;;;13.82;3.13;;;;;;;;;;5059824;28;20493;-76
2022/12/27 00:28:26;;;;;;;7.95;2.63;;;;;;;;;;5061862;28;20405;-76
2022/12/27 00:30:55;;;;;;;13.27;4.07;;;;;;;;;;5059881;28;20044;-76
2022/12/27 00:33:21;;;;;;;14.45;3.70;;;;;;;;;;5064546;28;20472;-76
2022/12/27 00:35:47;;;;;;;15.13;3.10;;;;;;;;;;5062346;28;20131;-76
2022/12/27 00:38:13;;;;;;;9.05;3.22;;;;;;;;;;5065243;28;20064;-76
2022/12/27 00:40:40;;;;;;;12.38;2.60;;;;;;;;;;5065394;28;20114;-76
2022/12/27 00:43:06;;;;;;;12.35;3.47;;;;;;;;;;5065838;28;20048;-76
2022/12/27 00:45:32;;;;;;;13.15;3.67;;;;;;;;;;5066752;28;20102;-76
2022/12/27 00:47:58;;;;;;;13.52;3.65;;;;;;;;;;5067179;28;20115;-76
2022/12/27 00:50:24;;;;;;;14.65;3.47;;;;;;;;;;5066898;28;20182;-76
2022/12/27 00:52:52;;;;;;;13.65;3.78;;;;;;;;;;5064624;28;20037;-76
2022/12/27 00:55:18;;;;;;;11.80;3.10;;;;;;;;;;5063306;28;20048;-76
2022/12/27 00:57:44;;;;;;;16.02;3.72;;;;;;;;;;5067314;28;20047;-76
2022/12/27 01:00:11;;;;;;;13.90;3.70;;;;;;;;;;5065565;28;20446;-76
2022/12/27 01:02:37;;;;;;;11.70;3.00;;;;;;;;;;5067886;28;20396;-76
2022/12/27 01:05:03;;;;;;;8.55;2.60;;;;;;;;;;5064262;28;20510;-75
2022/12/27 01:07:29;;;;;;;7.00;2.45;;;;;;;;;;5068056;28;20045;-75
2022/12/27 01:09:55;;;;;;;8.48;2.67;;;;;;;;;;5068649;28;20048;-76
2022/12/27 01:12:21;;;;;;;11.40;3.10;;;;;;;;;;5069971;28;20045;-76
2022/12/27 01:14:47;;;;;;;13.32;3.22;;;;;;;;;;5063824;28;20041;-75
2022/12/27 01:17:13;;;;;;;16.70;3.20;;;;;;;;;;5062545;28;20055;-76
2022/12/27 01:19:39;;;;;;;14.75;3.45;;;;;;;;;;5068587;28;20480;-75
2022/12/27 01:22:06;;;;;;;15.35;3.75;;;;;;;;;;5061036;28;20485;-76
2022/12/27 01:24:32;;;;;;;9.07;3.70;;;;;;;;;;5063501;28;20043;-76
2022/12/27 01:26:58;;;;;;;12.82;3.85;;;;;;;;;;5072584;28;20546;-76
2022/12/27 01:29:24;;;;;;;15.52;3.35;;;;;;;;;;5069703;28;21870;-76
2022/12/27 01:31:50;;;;;;;15.68;3.80;;;;;;;;;;5070820;28;20480;-76
2022/12/27 01:34:17;;;;;;;11.65;3.72;;;;;;;;;;5068862;28;20044;-76
2022/12/27 01:36:43;;;;;;;9.73;3.00;;;;;;;;;;5068026;28;20041;-76
2022/12/27 01:39:10;;;;;;;16.75;4.47;;;;;;;;;;5066560;28;20052;-76
2022/12/27 01:44:48;;;;;;;14.93;3.88;;;;;;;;;;5067486;28;20476;-76
2022/12/27 01:47:23;;;;;;;13.95;3.25;;;;;;;;;;5063957;28;20047;-76
2022/12/27 01:49:52;;;;;;;14.23;3.40;;;;;;;;;;5068202;28;20102;-76
2022/12/27 01:52:18;;;;;;;17.08;3.92;;;;;;;;;;5068795;28;20052;-76
2022/12/27 01:54:44;;;;;;;11.57;2.97;;;;;;;;;;5070668;28;20494;-76
2022/12/27 01:57:10;;;;;;;9.52;2.97;;;;;;;;;;5068024;28;20129;-76
2022/12/27 01:59:37;;;;;;;11.57;3.70;;;;;;;;;;5069522;28;20036;-76
2022/12/27 02:02:03;;;;;;;12.32;3.20;;;;;;;;;;5067789;28;20040;-76
2022/12/27 02:04:30;;;;;;;19.90;3.60;;;;;;;;;;5069371;28;20142;-76
2022/12/27 02:06:56;;;;;;;19.40;4.13;;;;;;;;;;5069695;28;20044;-76
2022/12/27 02:09:31;;;;;;;17.30;4.60;;;;;;;;;;5066944;28;20076;-76
2022/12/27 02:12:00;;;;;;;13.60;3.75;;;;;;;;;;5070997;28;20094;-76
2022/12/27 02:14:32;;;;;;;12.65;3.22;;;;;;;;;;5068828;28;20052;-76
2022/12/27 02:16:59;;;;;;;13.55;3.60;;;;;;;;;;5066568;28;20562;-76
2022/12/27 02:19:28;;;;;;;12.35;3.67;;;;;;;;;;5066208;28;20125;-76
2022/12/27 02:22:03;;;;;;;10.15;3.20;;;;;;;;;;5067109;28;20041;-76
2022/12/27 02:24:29;;;;;;;12.65;3.83;;;;;;;;;;5063506;28;20129;-76
2022/12/27 02:26:55;;;;;;;8.55;3.55;;;;;;;;;;5064142;28;20098;-76
2022/12/27 02:29:40;;;;;;;15.00;3.70;;;;;;;;;;5066881;28;20053;-76
2022/12/27 02:32:09;;;;;;;17.75;4.28;;;;;;;;;;5064924;28;20047;-76
2022/12/27 02:34:44;;;;;;;15.77;3.70;;;;;;;;;;5067532;28;20127;-76
2022/12/27 02:37:12;;;;;;;17.77;3.88;;;;;;;;;;5065257;28;20171;-76
2022/12/27 02:39:40;;;;;;;11.23;3.10;;;;;;;;;;5064623;28;20499;-76
2022/12/27 02:53:44;;;;;;;15.97;4.00;;;;;;;;;;5063665;28;20128;-77
2022/12/27 02:59:33;;;;;;;12.60;3.88;;;;;;;;;;5012895;28;20087;-77
2022/12/27 03:05:03;;;;;;;13.15;3.78;;;;;;;;;;5065481;28;20119;-77
2022/12/27 03:07:47;;;;;;;15.25;3.45;;;;;;;;;;5068372;28;20154;-77
2022/12/27 03:16:21;;;;;;;14.13;3.38;;;;;;;;;;5032652;28;20083;-76
2022/12/27 03:18:56;;;;;;;14.82;3.97;;;;;;;;;;5023906;28;20548;-76
2022/12/27 03:27:01;;;;;;;18.10;4.10;;;;;;;;;;5046150;28;20446;-76
2022/12/27 03:35:01;;;;;;;15.98;3.72;;;;;;;;;;5066941;28;20048;-76
2022/12/27 03:40:17;;;;;;;14.70;4.05;;;;;;;;;;5062796;28;20048;-76
2022/12/27 03:48:22;;;;;;;16.95;3.65;;;;;;;;;;5058571;28;20057;-76
2022/12/27 03:50:53;;;;;;;14.57;3.90;;;;;;;;;;5066126;28;20052;-75
2022/12/27 03:53:25;;;;;;;13.88;4.00;;;;;;;;;;5066651;28;20048;-76
2022/12/27 03:55:51;;;;;;;17.98;3.90;;;;;;;;;;5069844;28;20130;-75
2022/12/27 03:58:17;;;;;;;14.88;3.53;;;;;;;;;;5060866;28;20051;-75
2022/12/27 04:00:43;;;;;;;17.73;3.75;;;;;;;;;;5059740;28;20127;-75
2022/12/27 04:03:09;;;;;;;13.85;3.60;;;;;;;;;;5065962;28;20135;-75
2022/12/27 04:05:35;;;;;;;13.23;3.40;;;;;;;;;;5061141;28;20128;-76
2022/12/27 04:35:38;;;;;;;15.30;4.13;;;;;;;;;;5066195;28;20304;-75
2022/12/27 04:38:04;;;;;;;15.50;4.18;;;;;;;;;;5065959;28;20052;-75
2022/12/27 04:57:03;;;;;;;12.13;3.25;;;;;;;;;;5064887;28;20049;-75
2022/12/27 05:02:17;;;;;;;6.93;3.30;;;;;;;;;;5063559;28;20044;-75
2022/12/27 05:04:44;;;;;;;13.23;4.00;;;;;;;;;;5067785;28;20045;-75
2022/12/27 05:15:29;;;;;;;14.95;3.40;;;;;;;;;;5062991;28;20057;-75
2022/12/27 05:17:56;;;;;;;9.20;3.10;;;;;;;;;;5058238;28;20049;-75
2022/12/27 05:20:22;;;;;;;10.15;3.47;;;;;;;;;;5057336;28;20048;-75
2022/12/27 05:25:33;;;;;;;14.13;3.65;;;;;;;;;;5064834;28;20056;-76
2022/12/27 05:27:59;;;;;;;7.95;2.92;;;;;;;;;;5065424;28;20048;-75
2022/12/27 05:30:25;;;;;;;11.93;3.35;;;;;;;;;;5064359;28;20056;-76
2022/12/27 05:32:55;;;;;;;14.50;3.53;;;;;;;;;;5066790;28;20040;-75
2022/12/27 05:35:21;;;;;;;15.88;3.50;;;;;;;;;;5064850;28;20048;-76
2022/12/27 05:37:47;;;;;;;13.68;3.45;;;;;;;;;;5060783;28;20174;-75
2022/12/27 05:40:13;;;;;;;13.80;3.95;;;;;;;;;;5066986;28;20447;-75
2022/12/27 05:42:39;;;;;;;12.52;3.35;;;;;;;;;;5066438;28;20099;-76
2022/12/27 05:45:06;;;;;;;10.63;3.47;;;;;;;;;;5066552;28;20048;-75
2022/12/27 05:47:32;;;;;;;10.60;3.10;;;;;;;;;;5067051;28;20036;-75
2022/12/27 05:49:58;;;;;;;9.80;2.70;;;;;;;;;;5066224;28;20081;-76
2022/12/27 05:52:24;;;;;;;8.68;2.95;;;;;;;;;;5067755;28;20412;-75
2022/12/27 05:54:50;;;;;;;14.77;3.40;;;;;;;;;;5072083;28;20040;-75
2022/12/27 05:57:16;;;;;;;12.05;3.30;;;;;;;;;;5068016;28;20049;-75
2022/12/27 05:59:42;;;;;;;11.02;3.33;;;;;;;;;;5068086;28;20048;-75
2022/12/27 06:02:08;;;;;;;14.93;3.63;;;;;;;;;;5062476;28;20044;-75
2022/12/27 06:04:34;;;;;;;13.38;4.10;;;;;;;;;;5066970;28;20040;-75
2022/12/27 06:07:00;;;;;;;14.23;3.22;;;;;;;;;;5065701;28;20052;-75
2022/12/27 06:09:26;;;;;;;10.52;3.20;;;;;;;;;;5068580;28;20044;-75
2022/12/27 06:11:52;;;;;;;13.85;3.58;;;;;;;;;;5067755;28;20051;-75
2022/12/27 06:14:20;;;;;;;13.43;3.90;;;;;;;;;;5068060;28;20063;-75
2022/12/27 06:16:46;;;;;;;13.23;3.58;;;;;;;;;;5069118;28;20033;-75
2022/12/27 06:19:12;;;;;;;14.35;3.53;;;;;;;;;;5059960;28;20052;-75
2022/12/27 06:21:39;;;;;;;18.08;3.30;;;;;;;;;;5069387;28;20125;-75
2022/12/27 06:24:05;;;;;;;19.95;3.97;;;;;;;;;;5063088;28;20090;-75
2022/12/27 06:26:31;;;;;;;18.90;4.65;;;;;;;;;;5070170;28;20082;-76
2022/12/27 06:28:57;;;;;;;12.25;3.42;;;;;;;;;;5068043;28;20084;-75
2022/12/27 06:31:26;;;;;;;11.77;4.05;;;;;;;;;;5063599;28;20041;-76
2022/12/27 06:33:52;;;;;;;13.20;4.10;;;;;;;;;;5067451;28;20052;-80
2022/12/27 06:36:19;;;;;;;13.25;3.70;;;;;;;;;;5065251;28;20063;-81
2022/12/27 06:38:46;;;;;;;14.45;3.40;;;;;;;;;;5062144;28;20056;-80
2022/12/27 06:41:13;;;;;;;11.43;3.10;;;;;;;;;;5068563;28;20071;-79
2022/12/27 06:43:39;;;;;;;8.70;3.33;;;;;;;;;;5068363;28;20067;-80
2022/12/27 06:46:16;;;;;;;10.90;3.75;;;;;;;;;;5068430;28;20545;-76
2022/12/27 06:48:42;;;;;;;11.68;3.33;;;;;;;;;;5066806;28;20068;-75
2022/12/27 06:51:10;;;;;;;16.48;3.92;;;;;;;;;;5064921;28;20048;-76
2022/12/27 06:53:37;;;;;;;10.85;3.63;;;;;;;;;;5065536;28;20041;-75
2022/12/27 06:56:07;;;;;;;13.77;3.22;;;;;;;;;;5068618;28;20135;-75
2022/12/27 06:58:33;;;;;;;15.45;3.20;;;;;;;;;;5067382;28;20032;-75
2022/12/27 07:01:06;;;;;;;14.13;3.33;;;;;;;;;;5064983;28;20087;-75
2022/12/27 07:03:32;;;;;;;8.93;3.17;;;;;;;;;;5068678;28;20036;-76
2022/12/27 07:06:01;;;;;;;15.23;3.38;;;;;;;;;;5065960;28;20044;-76
2022/12/27 07:08:27;;;;;;;12.75;3.72;;;;;;;;;;5063977;28;20102;-76
2022/12/27 07:10:59;;;;;;;17.70;3.30;;;;;;;;;;5068431;28;20049;-76
2022/12/27 07:13:25;;;;;;;13.82;3.55;;;;;;;;;;5064658;28;20648;-76
2022/12/27 07:15:51;;;;;;;16.98;3.63;;;;;;;;;;5066696;28;20049;-76
2022/12/27 07:18:17;;;;;;;15.18;4.05;;;;;;;;;;5062653;28;20079;-76
2022/12/27 07:20:43;;;;;;;9.40;3.03;;;;;;;;;;5068290;28;20123;-76
2022/12/27 07:23:10;;;;;;;16.52;4.07;;;;;;;;;;5059838;28;20036;-76
2022/12/27 07:25:36;;;;;;;9.68;2.70;;;;;;;;;;5064173;28;20045;-76
2022/12/27 07:28:02;;;;;;;13.25;3.25;;;;;;;;;;5066809;28;20050;-76
2022/12/27 07:30:28;;;;;;;12.13;3.13;;;;;;;;;;5063424;28;20044;-76
2022/12/27 07:32:54;;;;;;;11.38;3.10;;;;;;;;;;5068217;28;20492;-76
2022/12/27 07:35:20;;;;;;;13.85;2.75;;;;;;;;;;5069136;28;20132;-76
2022/12/27 07:37:46;;;;;;;18.92;3.47;;;;;;;;;;5066848;28;20076;-76
2022/12/27 07:40:12;;;;;;;11.40;3.13;;;;;;;;;;5066568;28;20056;-76
2022/12/27 07:42:38;;;;;;;14.85;3.38;;;;;;;;;;5064019;28;20049;-76
2022/12/27 07:45:04;;;;;;;15.43;3.25;;;;;;;;;;5065257;28;20032;-76
2022/12/27 07:47:30;;;;;;;11.73;3.17;;;;;;;;;;5066858;28;20519;-76
2022/12/27 07:49:56;;;;;;;14.23;3.40;;;;;;;;;;5067392;28;20044;-75
2022/12/27 07:52:22;;;;;;;12.18;3.08;;;;;;;;;;5065016;28;20059;-76
2022/12/27 07:54:48;;;;;;;7.65;2.90;;;;;;;;;;5069105;28;20048;-76
2022/12/27 07:57:14;;;;;;;11.73;3.30;;;;;;;;;;5067029;28;20049;-76
2022/12/27 07:59:40;;;;;;;13.60;3.40;;;;;;;;;;5067369;28;20041;-75
2022/12/27 08:02:08;;;;;;;15.20;2.97;;;;;;;;;;5059744;28;20179;-76
2022/12/27 08:04:36;;;;;;;7.20;2.88;;;;;;;;;;5064780;28;20392;-76
2022/12/27 08:07:22;;;;;;;19.40;5.70;;;;;;;;;;5067600;28;20069;-75
2022/12/27 08:09:48;;;;;;;10.88;3.28;;;;;;;;;;5058782;28;20045;-75
2022/12/27 08:12:14;;;;;;;11.05;3.10;;;;;;;;;;5066965;28;20142;-76
2022/12/27 08:14:41;;;;;;;12.55;4.15;;;;;;;;;;5069669;28;20071;-75
2022/12/27 08:17:19;;;;;;;12.82;3.67;;;;;;;;;;5068535;28;20040;-75
2022/12/27 08:19:46;;;;;;;13.73;3.50;;;;;;;;;;5071370;28;20059;-75
2022/12/27 08:22:12;;;;;;;11.70;3.25;;;;;;;;;;5070921;28;20052;-75
2022/12/27 08:24:40;;;;;;;14.05;3.20;;;;;;;;;;5065824;28;20049;-75
2022/12/27 08:27:06;;;;;;;13.38;3.53;;;;;;;;;;5067869;28;20583;-75
2022/12/27 08:29:32;;;;;;;9.90;2.85;;;;;;;;;;5063022;28;20041;-75
2022/12/27 08:31:58;;;;;;;14.65;3.63;;;;;;;;;;5069772;28;20064;-75
2022/12/27 08:34:24;;;;;;;14.48;3.50;;;;;;;;;;5070511;28;20079;-75
2022/12/27 08:36:50;;;;;;;17.60;3.92;;;;;;;;;;5063958;28;20052;-76
2022/12/27 08:39:17;;;;;;;10.38;3.40;;;;;;;;;;5064428;28;20075;-75
2022/12/27 08:41:43;;;;;;;10.30;3.10;;;;;;;;;;5059107;28;20543;-76
2022/12/27 08:44:09;;;;;;;10.85;3.40;;;;;;;;;;5062076;28;20128;-76
2022/12/27 08:46:37;;;;;;;10.55;3.00;;;;;;;;;;5066432;28;20036;-75
2022/12/27 08:49:03;;;;;;;10.68;3.28;;;;;;;;;;5068239;28;20040;-75
2022/12/27 08:51:29;;;;;;;8.18;3.15;;;;;;;;;;5067864;28;20041;-76
2022/12/27 08:53:55;;;;;;;9.98;2.95;;;;;;;;;;5066185;28;20135;-75
2022/12/27 08:56:22;;;;;;;7.57;2.70;;;;;;;;;;5063680;28;20040;-75
2022/12/27 08:58:48;;;;;;;14.02;4.03;;;;;;;;;;5066443;28;20032;-76
2022/12/27 09:01:14;;;;;;;14.77;2.92;;;;;;;;;;5065346;28;20080;-77
2022/12/27 09:03:40;;;;;;;7.00;2.83;;;;;;;;;;5061490;28;20044;-77
2022/12/27 09:06:26;;;;;;;7.00;2.78;;;;;;;;;;5061820;28;20060;-77
2022/12/27 09:08:53;;;;;;;9.15;3.30;;;;;;;;;;5059513;28;20089;-76
2022/12/27 09:11:27;;;;;;;9.40;3.50;;;;;;;;;;5065082;28;20080;-77
2022/12/27 09:13:57;;;;;;;13.93;5.35;;;;;;;;;;5068663;28;20086;-77
2022/12/27 09:16:26;;;;;;;7.57;3.47;;;;;;;;;;5060649;28;20477;-76
2022/12/27 09:18:53;;;;;;;11.27;3.35;;;;;;;;;;5059294;28;20048;-76
2022/12/27 09:21:20;;;;;;;8.95;2.70;;;;;;;;;;5056942;28;20052;-76
2022/12/27 09:23:46;;;;;;;12.75;3.10;;;;;;;;;;5066000;28;20045;-77
2022/12/27 09:26:14;;;;;;;7.38;3.13;;;;;;;;;;5069388;28;20048;-76
2022/12/27 09:28:41;;;;;;;8.55;2.92;;;;;;;;;;5070725;28;20488;-77
2022/12/27 09:31:07;;;;;;;6.60;2.55;;;;;;;;;;5065173;28;20473;-76
2022/12/27 09:33:33;;;;;;;10.55;2.95;;;;;;;;;;5070692;28;20040;-77
2022/12/27 09:36:01;;;;;;;7.55;3.13;;;;;;;;;;5066050;28;20375;-76
2022/12/27 09:38:27;;;;;;;10.50;3.00;;;;;;;;;;5067369;28;20099;-77
2022/12/27 09:40:54;;;;;;;13.32;2.95;;;;;;;;;;5068325;28;20052;-78
2022/12/27 09:43:21;;;;;;;8.30;2.42;;;;;;;;;;5070546;28;20041;-78
2022/12/27 09:45:50;;;;;;;13.52;2.90;;;;;;;;;;5066477;28;20135;-77
2022/12/27 09:48:22;;;;;;;8.63;2.70;;;;;;;;;;5067460;28;20048;-78
2022/12/27 09:50:57;;;;;;;13.25;3.38;;;;;;;;;;5065329;28;20102;-78
2022/12/27 09:53:26;;;;;;;10.30;2.78;;;;;;;;;;5065321;28;20040;-78
2022/12/27 09:55:53;;;;;;;16.88;5.80;;;;;;;;;;5064416;28;20072;-78
2022/12/27 09:58:25;;;;;;;9.70;3.60;;;;;;;;;;5069858;28;20135;-77
2022/12/27 10:00:54;;;;;;;10.13;2.97;;;;;;;;;;5063722;28;20083;-79
2022/12/27 10:03:23;;;;;;;11.90;2.75;;;;;;;;;;5061178;28;20404;-79
2022/12/27 10:05:52;;;;;;;4.30;2.67;;;;;;;;;;5068326;28;20051;-77
2022/12/27 10:08:37;;;;;;;12.27;3.13;;;;;;;;;;5071541;28;20048;-75
2022/12/27 10:11:34;;;;;;;10.98;2.78;;;;;;;;;;5061871;28;20049;-77
2022/12/27 10:14:01;;;;;;;9.63;3.15;;;;;;;;;;5066659;28;20454;-78
2022/12/27 10:16:27;;;;;;;10.75;3.30;;;;;;;;;;5062428;28;20036;-74
2022/12/27 10:19:14;;;;;;;8.82;3.08;;;;;;;;;;5064734;28;20059;-77
2022/12/27 10:21:46;;;;;;;21.95;10.23;;;;;;;;;;5070836;28;20045;-80
2022/12/27 10:24:31;;;;;;;13.00;4.60;;;;;;;;;;5068699;28;20045;-80
2022/12/27 10:26:57;;;;;;;12.25;3.38;;;;;;;;;;5066613;28;20044;-79
2022/12/27 10:29:27;;;;;;;14.88;3.40;;;;;;;;;;5072358;28;20048;-81
2022/12/27 10:31:53;;;;;;;7.32;3.35;;;;;;;;;;5064853;28;20162;-80
2022/12/27 10:34:23;;;;;;;13.40;3.50;;;;;;;;;;5060829;28;20055;-79
2022/12/27 10:36:50;;;;;;;7.95;3.17;;;;;;;;;;5067275;28;20047;-78
2022/12/27 10:39:29;;;;;;;12.68;3.53;;;;;;;;;;5071214;28;20106;-76
2022/12/27 10:42:14;;;;;;;12.48;3.83;;;;;;;;;;5071047;28;20500;-73
2022/12/27 10:44:40;;;;;;;14.45;3.20;;;;;;;;;;5061146;28;20051;-74
2022/12/27 10:47:06;;;;;;;9.48;2.95;;;;;;;;;;5067470;28;20041;-75
2022/12/27 10:49:33;;;;;;;8.93;3.30;;;;;;;;;;5059391;28;20052;-74
2022/12/27 10:52:06;;;;;;;15.05;4.07;;;;;;;;;;5059718;28;20044;-74
2022/12/27 10:54:32;;;;;;;12.18;3.42;;;;;;;;;;5071961;28;20176;-77
2022/12/27 10:57:16;;;;;;;12.30;3.58;;;;;;;;;;5069446;28;20043;-77
2022/12/27 10:59:42;;;;;;;7.00;2.70;;;;;;;;;;5066492;28;20450;-77
2022/12/27 11:02:15;;;;;;;13.10;3.05;;;;;;;;;;5068281;28;20391;-75
2022/12/27 11:04:55;;;;;;;11.35;3.20;;;;;;;;;;5072950;28;20404;-75
2022/12/27 11:07:21;;;;;;;10.23;3.65;;;;;;;;;;5060172;28;20044;-76
2022/12/27 11:09:47;;;;;;;11.00;3.03;;;;;;;;;;5066330;28;20043;-76
2022/12/27 11:12:13;;;;;;;8.75;3.33;;;;;;;;;;5060681;28;20068;-78
2022/12/27 11:14:39;;;;;;;11.63;3.53;;;;;;;;;;5057911;28;20518;-78
2022/12/27 11:17:10;;;;;;;7.85;3.15;;;;;;;;;;5063389;28;20040;-77
2022/12/27 11:19:37;;;;;;;19.98;8.68;;;;;;;;;;5053079;28;20484;-78
2022/12/27 11:22:05;;;;;;;11.02;3.40;;;;;;;;;;5058230;28;20055;-74
2022/12/27 11:24:31;;;;;;;12.05;3.60;;;;;;;;;;5057081;28;20044;-75
2022/12/27 11:26:58;;;;;;;13.98;3.22;;;;;;;;;;5053514;28;20052;-75
2022/12/27 11:29:28;;;;;;;11.60;3.00;;;;;;;;;;5057806;28;20064;-78
2022/12/27 11:31:55;;;;;;;9.20;3.92;;;;;;;;;;5061084;28;20048;-76
2022/12/27 11:34:27;;;;;;;9.27;3.67;;;;;;;;;;5061118;28;20264;-78
2022/12/27 11:36:54;;;;;;;11.75;3.10;;;;;;;;;;5061365;28;20052;-77
2022/12/27 11:39:36;;;;;;;13.30;3.30;;;;;;;;;;5063510;28;20090;-78
2022/12/27 11:42:04;;;;;;;14.52;3.20;;;;;;;;;;5062457;28;20052;-77
2022/12/27 11:44:33;;;;;;;11.05;3.13;;;;;;;;;;5058081;28;20036;-77
2022/12/27 11:46:59;;;;;;;10.35;2.90;;;;;;;;;;5057613;28;21965;-77
2022/12/27 11:49:28;;;;;;;7.57;3.53;;;;;;;;;;5052150;28;20058;-77
2022/12/27 11:52:09;;;;;;;9.95;2.67;;;;;;;;;;5061192;28;20044;-77
2022/12/27 11:54:42;;;;;;;9.93;2.85;;;;;;;;;;5064012;28;20424;-77
2022/12/27 11:57:14;;;;;;;8.90;2.80;;;;;;;;;;5062126;28;20115;-77
2022/12/27 11:59:45;;;;;;;8.23;2.60;;;;;;;;;;5065184;28;20033;-77
2022/12/27 12:02:30;;;;;;;10.40;2.95;;;;;;;;;;5061308;28;20201;-77
2022/12/27 12:04:59;;;;;;;7.45;2.53;;;;;;;;;;5062980;28;20049;-79
2022/12/27 12:07:38;;;;;;;10.32;2.60;;;;;;;;;;5069606;28;20408;-79
2022/12/27 12:10:16;;;;;;;8.23;2.75;;;;;;;;;;5061147;28;20053;-80
2022/12/27 12:12:42;;;;;;;11.95;2.60;;;;;;;;;;5059040;28;20049;-80
2022/12/27 12:15:27;;;;;;;6.53;2.83;;;;;;;;;;5066972;28;20474;-78
2022/12/27 12:18:05;;;;;;;11.88;2.60;;;;;;;;;;5061337;28;20500;-80
2022/12/27 12:20:43;;;;;;;8.70;2.78;;;;;;;;;;5055287;28;20584;-81
2022/12/27 12:23:18;;;;;;;9.55;3.15;;;;;;;;;;5062462;28;20056;-80
2022/12/27 12:25:44;;;;;;;5.00;2.90;;;;;;;;;;5060681;28;20519;-78
2022/12/27 12:28:31;;;;;;;6.22;2.50;;;;;;;;;;5064998;28;20087;-78
2022/12/27 12:31:03;;;;;;;9.00;2.92;;;;;;;;;;5058640;28;20123;-78
2022/12/27 12:33:41;;;;;;;7.80;3.30;;;;;;;;;;5067233;28;20423;-79
2022/12/27 12:36:16;;;;;;;9.43;3.22;;;;;;;;;;5067016;28;20508;-79
2022/12/27 12:38:49;;;;;;;9.32;3.05;;;;;;;;;;5052011;28;20044;-79
2022/12/27 12:41:30;;;;;;;10.63;3.20;;;;;;;;;;5064160;28;20409;-79
2022/12/27 12:44:03;;;;;;;8.48;2.50;;;;;;;;;;5065728;28;20040;-79
2022/12/27 12:46:58;;;;;;;9.25;2.55;;;;;;;;;;5060073;28;20048;-81
2022/12/27 12:49:44;;;;;;;8.35;2.70;;;;;;;;;;5050479;28;20059;-79
2022/12/27 12:52:29;;;;;;;8.07;2.60;;;;;;;;;;5067757;28;20041;-76
2022/12/27 12:55:14;;;;;;;7.80;2.05;;;;;;;;;;5065625;28;20040;-79
2022/12/27 12:57:54;;;;;;;7.55;2.50;;;;;;;;;;5067439;28;20055;-80
2022/12/27 13:00:20;;;;;;;11.68;2.90;;;;;;;;;;5068139;28;20036;-79
2022/12/27 13:03:10;;;;;;;7.60;2.40;;;;;;;;;;5072649;28;20098;-80
2022/12/27 13:05:51;;;;;;;6.10;2.40;;;;;;;;;;5073365;28;20356;-78
2022/12/27 13:08:36;;;;;;;10.52;2.47;;;;;;;;;;5068619;28;20051;-77
2022/12/27 13:11:08;;;;;;;8.02;5.28;;;;;;;;;;5065728;28;20047;-77
2022/12/27 13:13:37;;;;;;;5.90;3.20;;;;;;;;;;5065666;28;20495;-79
2022/12/27 13:16:12;;;;;;;10.82;3.30;;;;;;;;;;5061991;28;20515;-77
2022/12/27 13:18:41;;;;;;;6.28;3.00;;;;;;;;;;5071726;28;20105;-77
2022/12/27 13:21:20;;;;;;;7.40;3.03;;;;;;;;;;5059719;28;20105;-77
2022/12/27 13:24:01;;;;;;;10.40;4.45;;;;;;;;;;5065819;28;20041;-78
2022/12/27 13:26:47;;;;;;;12.18;3.83;;;;;;;;;;5065525;28;20041;-77
2022/12/27 13:29:32;;;;;;;12.23;4.65;;;;;;;;;;5067690;28;20083;-77
2022/12/27 13:31:58;;;;;;;15.93;6.05;;;;;;;;;;5066029;28;20048;-77
2022/12/27 13:34:57;;;;;;;6.28;3.80;;;;;;;;;;5069069;28;20465;-77
2022/12/27 13:37:42;;;;;;;12.07;4.10;;;;;;;;;;5046099;28;20085;-77
2022/12/27 13:40:34;;;;;;;15.52;4.13;;;;;;;;;;5063281;28;20494;-77
2022/12/27 13:43:09;;;;;;;9.90;3.60;;;;;;;;;;5070152;28;20044;-77
2022/12/27 13:45:54;;;;;;;16.63;4.13;;;;;;;;;;5069073;28;20396;-77
2022/12/27 13:48:29;;;;;;;10.02;4.05;;;;;;;;;;5066674;28;20040;-77
2022/12/27 13:51:14;;;;;;;12.82;4.30;;;;;;;;;;5063170;28;20495;-77
2022/12/27 13:53:58;;;;;;;10.90;4.10;;;;;;;;;;5068179;28;20415;-77
2022/12/27 13:56:30;;;;;;;11.07;4.05;;;;;;;;;;5067769;28;20511;-77
2022/12/27 13:59:03;;;;;;;15.48;4.22;;;;;;;;;;5072647;28;20072;-78
2022/12/27 14:01:33;;;;;;;11.33;3.73;;;;;;;;;;5066874;28;20530;-78
2022/12/27 14:04:13;;;;;;;12.73;4.25;;;;;;;;;;5067149;28;20302;-77
2022/12/27 14:06:45;;;;;;;8.48;4.35;;;;;;;;;;5066777;28;20044;-78
2022/12/27 14:09:29;;;;;;;8.75;4.15;;;;;;;;;;5066667;28;20107;-78
2022/12/27 14:12:07;;;;;;;13.80;5.00;;;;;;;;;;5060810;28;20108;-78
2022/12/27 14:14:35;;;;;;;10.85;4.82;;;;;;;;;;5067040;28;20492;-78
2022/12/27 14:17:20;;;;;;;9.52;5.20;;;;;;;;;;5062765;28;20045;-77
2022/12/27 14:20:02;;;;;;;14.25;4.50;;;;;;;;;;5059439;28;20044;-78
2022/12/27 14:22:40;;;;;;;11.73;4.75;;;;;;;;;;5068521;28;20041;-78
2022/12/27 14:25:06;;;;;;;12.30;5.18;;;;;;;;;;5069160;28;20493;-77
2022/12/27 14:27:53;;;;;;;15.05;5.68;;;;;;;;;;5057562;28;20051;-78
2022/12/27 14:30:19;;;;;;;10.70;5.40;;;;;;;;;;5056418;28;20044;-78
2022/12/27 14:33:06;;;;;;;15.32;5.15;;;;;;;;;;5071400;28;20033;-78
2022/12/27 14:35:58;;;;;;;16.50;7.40;;;;;;;;;;5067204;28;20033;-77
2022/12/27 14:38:30;;;;;;;14.52;5.82;;;;;;;;;;5009024;28;20069;-77
2022/12/27 14:41:15;;;;;;;13.13;4.82;;;;;;;;;;5023877;28;20057;-77
2022/12/27 14:44:09;;;;;;;8.73;5.28;;;;;;;;;;5030570;28;20049;-78
2022/12/27 14:47:04;;;;;;;14.43;5.78;;;;;;;;;;5020186;28;20390;-78
2022/12/27 14:50:00;;;;;;;10.15;5.55;;;;;;;;;;5025085;28;20416;-78
2022/12/27 14:52:35;;;;;;;14.95;5.95;;;;;;;;;;5030725;28;20584;-78
2022/12/27 14:55:05;;;;;;;13.32;6.28;;;;;;;;;;5024294;28;20448;-78
2022/12/27 14:57:31;;;;;;;13.38;6.70;;;;;;;;;;5021728;28;20401;-74
2022/12/27 15:00:02;;;;;;;17.92;8.00;;;;;;;;;;5028121;28;20060;-74
2022/12/27 15:02:58;;;;;;;12.50;6.90;;;;;;;;;;5028348;28;20056;-76
2022/12/27 15:05:24;;;;;;;14.10;8.20;;;;;;;;;;5031568;28;20389;-76
2022/12/27 15:08:03;;;;;;;12.00;8.13;;;;;;;;;;5027041;28;20048;-75
2022/12/27 15:10:48;;;;;;;15.07;8.55;;;;;;;;;;5026175;28;20425;-76
2022/12/27 15:13:17;;;;;;;14.30;8.40;;;;;;;;;;5023625;28;20049;-76
2022/12/27 15:15:49;;;;;;;15.43;8.27;;;;;;;;;;5031673;28;20378;-76
2022/12/27 15:18:15;;;;;;;16.38;8.27;;;;;;;;;;5022060;28;20049;-76
2022/12/27 15:20:44;;;;;;;15.05;9.13;;;;;;;;;;5013054;28;20041;-75
2022/12/27 15:23:17;;;;;;;16.83;8.57;;;;;;;;;;5024064;28;20048;-79
2022/12/27 15:25:55;;;;;;;13.75;7.60;;;;;;;;;;5026858;28;20086;-77
2022/12/27 15:28:31;;;;;;;14.20;8.77;;;;;;;;;;5022677;28;20045;-77
2022/12/27 15:31:03;;;;;;;17.50;8.68;;;;;;;;;;5036475;28;20120;-78
2022/12/27 15:33:32;;;;;;;17.52;8.98;;;;;;;;;;5026658;28;20482;-78
2022/12/27 15:36:02;;;;;;;14.73;10.00;;;;;;;;;;5022581;28;20053;-77
2022/12/27 15:38:49;;;;;;;17.45;9.43;;;;;;;;;;5055140;28;20152;-76
2022/12/27 15:41:21;;;;;;;15.10;10.05;;;;;;;;;;5069010;28;20527;-76
2022/12/27 15:43:53;;;;;;;18.92;9.25;;;;;;;;;;5064150;28;20036;-75
2022/12/27 15:46:22;;;;;;;14.77;9.40;;;;;;;;;;5061042;28;20055;-76
2022/12/27 15:48:59;;;;;;;17.75;10.15;;;;;;;;;;5064070;28;20043;-76
2022/12/27 15:51:46;;;;;;;21.33;14.15;;;;;;;;;;5063683;28;20048;-75
2022/12/27 15:54:23;;;;;;;16.48;9.52;;;;;;;;;;5064694;28;20040;-76
2022/12/27 15:56:54;;;;;;;20.67;10.50;;;;;;;;;;5062347;28;20083;-76
2022/12/27 15:59:32;;;;;;;19.35;10.00;;;;;;;;;;5065743;28;20045;-76
2022/12/27 16:02:16;;;;;;;20.52;9.23;;;;;;;;;;5059623;28;20049;-76
2022/12/27 16:04:47;;;;;;;17.60;8.93;;;;;;;;;;5067514;28;20154;-75
2022/12/27 16:07:32;;;;;;;13.38;9.45;;;;;;;;;;5062085;28;21446;-76
2022/12/27 16:10:16;;;;;;;17.05;9.32;;;;;;;;;;5053049;28;20446;-76
2022/12/27 16:12:43;;;;;;;17.95;9.77;;;;;;;;;;5060789;28;20093;-76
2022/12/27 16:15:28;;;;;;;15.32;8.98;;;;;;;;;;5068581;28;20488;-76
2022/12/27 16:17:55;;;;;;;11.30;8.55;;;;;;;;;;5064340;28;20052;-76
2022/12/27 16:20:22;;;;;;;16.52;8.82;;;;;;;;;;5056719;28;20044;-76
2022/12/27 16:22:48;;;;;;;17.33;9.40;;;;;;;;;;5058001;28;20043;-76
2022/12/27 16:25:22;;;;;;;12.52;8.93;;;;;;;;;;5063702;28;20060;-76
2022/12/27 16:27:57;;;;;;;15.50;9.40;;;;;;;;;;5059664;28;20045;-76
2022/12/27 16:30:41;;;;;;;13.25;9.77;;;;;;;;;;5066384;28;20044;-76
2022/12/27 16:33:19;;;;;;;17.55;9.63;;;;;;;;;;5061627;28;20041;-75
2022/12/27 16:35:45;;;;;;;17.30;9.52;;;;;;;;;;5067294;28;20044;-75
2022/12/27 16:38:20;;;;;;;19.80;9.93;;;;;;;;;;5066383;28;20446;-76
2022/12/27 16:41:05;;;;;;;15.85;10.30;;;;;;;;;;5064919;28;20442;-75